sensor_id;sensor_type;location;lat;lon;timestamp;P1;durP1;ratioP1;P2;durP2;ratioP2
31692;SDS011;37436;53.230;6.614;2022-09-12T00:00:46;16.08;;;9.30;;
31692;SDS011;37436;53.230;6.614;2022-09-12T00:03:12;19.55;;;10.45;;
31692;SDS011;37436;53.230;6.614;2022-09-12T00:05:42;13.77;;;9.45;;
31692;SDS011;37436;53.230;6.614;2022-09-12T00:08:08;20.33;;;8.93;;
31692;SDS011;37436;53.230;6.614;2022-09-12T00:10:38;16.52;;;11.13;;
31692;SDS011;37436;53.230;6.614;2022-09-12T00:13:05;18.42;;;10.95;;
31692;SDS011;37436;53.230;6.614;2022-09-12T00:15:31;20.23;;;10.68;;
31692;SDS011;37436;53.230;6.614;2022-09-12T00:17:57;14.80;;;10.75;;
31692;SDS011;37436;53.230;6.614;2022-09-12T00:20:24;18.52;;;10.65;;
31692;SDS011;37436;53.230;6.614;2022-09-12T00:22:50;23.13;;;10.40;;
31692;SDS011;37436;53.230;6.614;2022-09-12T00:25:16;18.00;;;10.38;;
31692;SDS011;37436;53.230;6.614;2022-09-12T00:27:42;16.52;;;10.20;;
31692;SDS011;37436;53.230;6.614;2022-09-12T00:30:08;17.63;;;10.38;;
31692;SDS011;37436;53.230;6.614;2022-09-12T00:32:34;17.10;;;10.82;;
31692;SDS011;37436;53.230;6.614;2022-09-12T00:35:00;17.83;;;10.70;;
31692;SDS011;37436;53.230;6.614;2022-09-12T00:37:27;19.67;;;11.48;;
31692;SDS011;37436;53.230;6.614;2022-09-12T00:39:53;23.42;;;11.15;;
31692;SDS011;37436;53.230;6.614;2022-09-12T00:42:19;19.65;;;11.32;;
31692;SDS011;37436;53.230;6.614;2022-09-12T00:44:46;21.63;;;10.95;;
31692;SDS011;37436;53.230;6.614;2022-09-12T00:47:15;17.75;;;11.20;;
31692;SDS011;37436;53.230;6.614;2022-09-12T00:52:42;21.65;;;11.52;;
31692;SDS011;37436;53.230;6.614;2022-09-12T00:55:22;19.77;;;11.20;;
31692;SDS011;37436;53.230;6.614;2022-09-12T01:00:22;22.55;;;12.27;;
31692;SDS011;37436;53.230;6.614;2022-09-12T01:02:50;21.25;;;11.02;;
31692;SDS011;37436;53.230;6.614;2022-09-12T01:05:17;20.83;;;11.15;;
31692;SDS011;37436;53.230;6.614;2022-09-12T01:07:43;22.13;;;11.90;;
31692;SDS011;37436;53.230;6.614;2022-09-12T01:10:12;18.25;;;11.52;;
31692;SDS011;37436;53.230;6.614;2022-09-12T01:12:39;19.92;;;12.07;;
31692;SDS011;37436;53.230;6.614;2022-09-12T01:15:06;18.75;;;11.90;;
31692;SDS011;37436;53.230;6.614;2022-09-12T01:18:19;17.58;;;11.13;;
31692;SDS011;37436;53.230;6.614;2022-09-12T01:20:34;18.50;;;10.88;;
31692;SDS011;37436;53.230;6.614;2022-09-12T01:25:50;28.50;;;11.98;;
31692;SDS011;37436;53.230;6.614;2022-09-12T01:30:59;16.63;;;11.30;;
31692;SDS011;37436;53.230;6.614;2022-09-12T01:36:02;16.80;;;11.20;;
31692;SDS011;37436;53.230;6.614;2022-09-12T01:38:32;27.20;;;12.13;;
31692;SDS011;37436;53.230;6.614;2022-09-12T01:43:47;25.55;;;12.55;;
31692;SDS011;37436;53.230;6.614;2022-09-12T01:46:15;21.92;;;13.52;;
31692;SDS011;37436;53.230;6.614;2022-09-12T01:51:22;25.25;;;15.48;;
31692;SDS011;37436;53.230;6.614;2022-09-12T01:53:55;23.77;;;14.60;;
31692;SDS011;37436;53.230;6.614;2022-09-12T01:56:24;24.33;;;15.05;;
31692;SDS011;37436;53.230;6.614;2022-09-12T01:58:53;27.48;;;14.68;;
31692;SDS011;37436;53.230;6.614;2022-09-12T02:01:27;28.55;;;14.27;;
31692;SDS011;37436;53.230;6.614;2022-09-12T02:06:25;25.23;;;14.20;;
31692;SDS011;37436;53.230;6.614;2022-09-12T02:08:53;21.85;;;14.10;;
31692;SDS011;37436;53.230;6.614;2022-09-12T02:11:20;38.35;;;13.93;;
31692;SDS011;37436;53.230;6.614;2022-09-12T02:13:54;22.17;;;14.05;;
31692;SDS011;37436;53.230;6.614;2022-09-12T02:16:28;22.48;;;13.95;;
31692;SDS011;37436;53.230;6.614;2022-09-12T02:18:57;25.48;;;14.18;;
31692;SDS011;37436;53.230;6.614;2022-09-12T02:21:24;24.60;;;13.70;;
31692;SDS011;37436;53.230;6.614;2022-09-12T02:23:53;26.15;;;15.18;;
31692;SDS011;37436;53.230;6.614;2022-09-12T02:26:22;25.42;;;15.73;;
31692;SDS011;37436;53.230;6.614;2022-09-12T02:28:50;26.60;;;15.40;;
31692;SDS011;37436;53.230;6.614;2022-09-12T02:33:53;25.60;;;16.95;;
31692;SDS011;37436;53.230;6.614;2022-09-12T02:38:57;26.52;;;15.57;;
31692;SDS011;37436;53.230;6.614;2022-09-12T02:41:24;26.35;;;15.23;;
31692;SDS011;37436;53.230;6.614;2022-09-12T02:44:05;23.63;;;15.00;;
31692;SDS011;37436;53.230;6.614;2022-09-12T02:46:39;28.27;;;16.42;;
31692;SDS011;37436;53.230;6.614;2022-09-12T02:49:07;27.13;;;16.38;;
31692;SDS011;37436;53.230;6.614;2022-09-12T02:51:33;28.50;;;17.00;;
31692;SDS011;37436;53.230;6.614;2022-09-12T02:54:00;32.20;;;16.98;;
31692;SDS011;37436;53.230;6.614;2022-09-12T02:56:28;28.17;;;17.55;;
31692;SDS011;37436;53.230;6.614;2022-09-12T02:58:55;26.77;;;17.45;;
31692;SDS011;37436;53.230;6.614;2022-09-12T03:04:27;29.00;;;17.75;;
31692;SDS011;37436;53.230;6.614;2022-09-12T03:19:56;43.55;;;20.58;;
31692;SDS011;37436;53.230;6.614;2022-09-12T03:27:42;30.58;;;18.95;;
31692;SDS011;37436;53.230;6.614;2022-09-12T03:30:10;28.02;;;19.45;;
31692;SDS011;37436;53.230;6.614;2022-09-12T03:32:44;37.55;;;21.08;;
31692;SDS011;37436;53.230;6.614;2022-09-12T03:35:11;45.92;;;21.33;;
31692;SDS011;37436;53.230;6.614;2022-09-12T03:37:37;35.20;;;19.80;;
31692;SDS011;37436;53.230;6.614;2022-09-12T03:40:04;33.33;;;19.50;;
31692;SDS011;37436;53.230;6.614;2022-09-12T03:42:30;38.40;;;20.85;;
31692;SDS011;37436;53.230;6.614;2022-09-12T03:44:56;36.95;;;21.75;;
31692;SDS011;37436;53.230;6.614;2022-09-12T03:47:22;42.72;;;21.95;;
31692;SDS011;37436;53.230;6.614;2022-09-12T03:49:48;36.13;;;21.30;;
31692;SDS011;37436;53.230;6.614;2022-09-12T03:52:16;34.90;;;20.55;;
31692;SDS011;37436;53.230;6.614;2022-09-12T03:54:42;32.78;;;20.65;;
31692;SDS011;37436;53.230;6.614;2022-09-12T03:57:08;39.72;;;21.80;;
31692;SDS011;37436;53.230;6.614;2022-09-12T03:59:34;41.30;;;21.60;;
31692;SDS011;37436;53.230;6.614;2022-09-12T04:02:00;38.58;;;22.27;;
31692;SDS011;37436;53.230;6.614;2022-09-12T04:04:26;35.60;;;20.80;;
31692;SDS011;37436;53.230;6.614;2022-09-12T04:06:52;32.65;;;20.13;;
31692;SDS011;37436;53.230;6.614;2022-09-12T04:09:19;56.08;;;17.80;;
31692;SDS011;37436;53.230;6.614;2022-09-12T04:11:45;32.17;;;17.60;;
31692;SDS011;37436;53.230;6.614;2022-09-12T04:14:11;27.35;;;16.55;;
31692;SDS011;37436;53.230;6.614;2022-09-12T04:16:37;29.05;;;16.70;;
31692;SDS011;37436;53.230;6.614;2022-09-12T04:19:03;32.78;;;17.10;;
31692;SDS011;37436;53.230;6.614;2022-09-12T04:21:29;31.50;;;18.15;;
31692;SDS011;37436;53.230;6.614;2022-09-12T04:23:55;30.48;;;17.73;;
31692;SDS011;37436;53.230;6.614;2022-09-12T04:26:21;34.20;;;19.40;;
31692;SDS011;37436;53.230;6.614;2022-09-12T04:28:47;31.95;;;18.50;;
31692;SDS011;37436;53.230;6.614;2022-09-12T04:31:17;34.15;;;20.38;;
31692;SDS011;37436;53.230;6.614;2022-09-12T04:33:46;33.95;;;18.58;;
31692;SDS011;37436;53.230;6.614;2022-09-12T04:36:14;31.35;;;19.70;;
31692;SDS011;37436;53.230;6.614;2022-09-12T04:38:41;34.30;;;20.05;;
31692;SDS011;37436;53.230;6.614;2022-09-12T04:43:36;34.22;;;19.10;;
31692;SDS011;37436;53.230;6.614;2022-09-12T04:46:06;38.60;;;20.88;;
31692;SDS011;37436;53.230;6.614;2022-09-12T04:48:32;44.78;;;20.85;;
31692;SDS011;37436;53.230;6.614;2022-09-12T04:51:08;39.83;;;21.67;;
31692;SDS011;37436;53.230;6.614;2022-09-12T04:53:35;36.13;;;20.48;;
31692;SDS011;37436;53.230;6.614;2022-09-12T04:56:03;39.63;;;22.17;;
31692;SDS011;37436;53.230;6.614;2022-09-12T04:58:30;39.55;;;22.85;;
31692;SDS011;37436;53.230;6.614;2022-09-12T05:01:10;39.83;;;22.20;;
31692;SDS011;37436;53.230;6.614;2022-09-12T05:03:37;43.97;;;23.55;;
31692;SDS011;37436;53.230;6.614;2022-09-12T05:06:08;51.90;;;24.33;;
31692;SDS011;37436;53.230;6.614;2022-09-12T05:08:34;45.80;;;23.38;;
31692;SDS011;37436;53.230;6.614;2022-09-12T05:11:01;44.55;;;23.15;;
31692;SDS011;37436;53.230;6.614;2022-09-12T05:13:28;48.08;;;24.02;;
31692;SDS011;37436;53.230;6.614;2022-09-12T05:15:55;48.42;;;25.52;;
31692;SDS011;37436;53.230;6.614;2022-09-12T05:18:21;46.25;;;23.33;;
31692;SDS011;37436;53.230;6.614;2022-09-12T05:20:47;51.03;;;24.20;;
31692;SDS011;37436;53.230;6.614;2022-09-12T05:23:13;42.38;;;23.65;;
31692;SDS011;37436;53.230;6.614;2022-09-12T05:25:40;54.63;;;26.02;;
31692;SDS011;37436;53.230;6.614;2022-09-12T05:28:12;54.65;;;26.63;;
31692;SDS011;37436;53.230;6.614;2022-09-12T05:30:38;50.50;;;24.25;;
31692;SDS011;37436;53.230;6.614;2022-09-12T05:33:04;46.22;;;24.13;;
31692;SDS011;37436;53.230;6.614;2022-09-12T05:35:30;55.13;;;25.52;;
31692;SDS011;37436;53.230;6.614;2022-09-12T05:37:57;52.72;;;24.83;;
31692;SDS011;37436;53.230;6.614;2022-09-12T05:40:23;46.65;;;24.88;;
31692;SDS011;37436;53.230;6.614;2022-09-12T05:42:49;48.70;;;25.80;;
31692;SDS011;37436;53.230;6.614;2022-09-12T05:45:15;48.22;;;24.25;;
31692;SDS011;37436;53.230;6.614;2022-09-12T05:47:41;50.88;;;25.75;;
31692;SDS011;37436;53.230;6.614;2022-09-12T05:50:08;45.50;;;24.30;;
31692;SDS011;37436;53.230;6.614;2022-09-12T05:52:38;50.00;;;25.10;;
31692;SDS011;37436;53.230;6.614;2022-09-12T05:55:04;49.47;;;25.13;;
31692;SDS011;37436;53.230;6.614;2022-09-12T05:57:30;50.78;;;25.70;;
31692;SDS011;37436;53.230;6.614;2022-09-12T05:59:57;53.38;;;26.58;;
31692;SDS011;37436;53.230;6.614;2022-09-12T06:02:23;56.42;;;28.30;;
31692;SDS011;37436;53.230;6.614;2022-09-12T06:04:50;60.22;;;31.33;;
31692;SDS011;37436;53.230;6.614;2022-09-12T06:07:16;57.08;;;30.58;;
31692;SDS011;37436;53.230;6.614;2022-09-12T06:09:42;54.20;;;28.50;;
31692;SDS011;37436;53.230;6.614;2022-09-12T06:12:08;51.95;;;27.65;;
31692;SDS011;37436;53.230;6.614;2022-09-12T06:14:34;57.63;;;30.63;;
31692;SDS011;37436;53.230;6.614;2022-09-12T06:17:00;60.85;;;31.60;;
31692;SDS011;37436;53.230;6.614;2022-09-12T06:19:26;56.80;;;27.70;;
31692;SDS011;37436;53.230;6.614;2022-09-12T06:21:52;53.63;;;27.40;;
31692;SDS011;37436;53.230;6.614;2022-09-12T06:24:19;49.05;;;26.10;;
31692;SDS011;37436;53.230;6.614;2022-09-12T06:26:46;51.00;;;26.15;;
31692;SDS011;37436;53.230;6.614;2022-09-12T06:29:12;47.90;;;25.58;;
31692;SDS011;37436;53.230;6.614;2022-09-12T06:31:40;49.85;;;25.05;;
31692;SDS011;37436;53.230;6.614;2022-09-12T06:34:07;46.00;;;23.67;;
31692;SDS011;37436;53.230;6.614;2022-09-12T06:36:41;45.20;;;24.83;;
31692;SDS011;37436;53.230;6.614;2022-09-12T06:39:09;43.72;;;23.25;;
31692;SDS011;37436;53.230;6.614;2022-09-12T06:41:35;48.05;;;24.40;;
31692;SDS011;37436;53.230;6.614;2022-09-12T06:44:01;45.10;;;23.42;;
31692;SDS011;37436;53.230;6.614;2022-09-12T06:46:28;49.85;;;23.85;;
31692;SDS011;37436;53.230;6.614;2022-09-12T06:48:55;42.95;;;22.90;;
31692;SDS011;37436;53.230;6.614;2022-09-12T06:51:21;43.97;;;24.40;;
31692;SDS011;37436;53.230;6.614;2022-09-12T06:53:47;45.92;;;24.98;;
31692;SDS011;37436;53.230;6.614;2022-09-12T06:56:15;49.70;;;25.75;;
31692;SDS011;37436;53.230;6.614;2022-09-12T06:58:42;49.72;;;25.95;;
31692;SDS011;37436;53.230;6.614;2022-09-12T07:01:13;51.85;;;24.83;;
31692;SDS011;37436;53.230;6.614;2022-09-12T07:03:40;51.70;;;25.38;;
31692;SDS011;37436;53.230;6.614;2022-09-12T07:06:10;47.30;;;24.88;;
31692;SDS011;37436;53.230;6.614;2022-09-12T07:08:37;49.22;;;26.77;;
31692;SDS011;37436;53.230;6.614;2022-09-12T07:11:10;60.22;;;26.42;;
31692;SDS011;37436;53.230;6.614;2022-09-12T07:13:37;58.92;;;26.42;;
31692;SDS011;37436;53.230;6.614;2022-09-12T07:16:03;60.30;;;28.10;;
31692;SDS011;37436;53.230;6.614;2022-09-12T07:18:30;59.90;;;28.58;;
31692;SDS011;37436;53.230;6.614;2022-09-12T07:20:58;54.92;;;28.42;;
31692;SDS011;37436;53.230;6.614;2022-09-12T07:23:25;63.10;;;28.77;;
31692;SDS011;37436;53.230;6.614;2022-09-12T07:25:52;61.65;;;29.75;;
31692;SDS011;37436;53.230;6.614;2022-09-12T07:28:18;62.03;;;28.77;;
31692;SDS011;37436;53.230;6.614;2022-09-12T07:30:44;56.38;;;27.88;;
31692;SDS011;37436;53.230;6.614;2022-09-12T07:33:10;51.30;;;27.67;;
31692;SDS011;37436;53.230;6.614;2022-09-12T07:35:36;62.40;;;29.40;;
31692;SDS011;37436;53.230;6.614;2022-09-12T07:38:02;61.13;;;29.27;;
31692;SDS011;37436;53.230;6.614;2022-09-12T07:40:28;59.28;;;30.63;;
31692;SDS011;37436;53.230;6.614;2022-09-12T07:43:01;53.13;;;27.95;;
31692;SDS011;37436;53.230;6.614;2022-09-12T07:45:27;57.92;;;29.17;;
31692;SDS011;37436;53.230;6.614;2022-09-12T07:47:53;59.17;;;29.88;;
31692;SDS011;37436;53.230;6.614;2022-09-12T07:50:19;59.13;;;29.27;;
31692;SDS011;37436;53.230;6.614;2022-09-12T07:52:46;58.30;;;29.63;;
31692;SDS011;37436;53.230;6.614;2022-09-12T07:55:12;55.45;;;28.55;;
31692;SDS011;37436;53.230;6.614;2022-09-12T07:57:38;58.92;;;30.08;;
31692;SDS011;37436;53.230;6.614;2022-09-12T08:00:04;56.45;;;27.38;;
31692;SDS011;37436;53.230;6.614;2022-09-12T08:02:33;54.20;;;27.58;;
31692;SDS011;37436;53.230;6.614;2022-09-12T08:04:59;56.67;;;28.20;;
31692;SDS011;37436;53.230;6.614;2022-09-12T08:07:26;54.78;;;28.48;;
31692;SDS011;37436;53.230;6.614;2022-09-12T08:09:52;55.50;;;27.52;;
31692;SDS011;37436;53.230;6.614;2022-09-12T08:12:18;54.13;;;29.98;;
31692;SDS011;37436;53.230;6.614;2022-09-12T08:14:44;58.55;;;29.52;;
31692;SDS011;37436;53.230;6.614;2022-09-12T08:17:10;58.55;;;28.80;;
31692;SDS011;37436;53.230;6.614;2022-09-12T08:19:38;63.20;;;31.45;;
31692;SDS011;37436;53.230;6.614;2022-09-12T08:22:04;63.88;;;32.25;;
31692;SDS011;37436;53.230;6.614;2022-09-12T08:24:30;63.25;;;32.15;;
31692;SDS011;37436;53.230;6.614;2022-09-12T08:26:56;62.50;;;30.88;;
31692;SDS011;37436;53.230;6.614;2022-09-12T08:29:22;58.75;;;29.42;;
31692;SDS011;37436;53.230;6.614;2022-09-12T08:31:55;57.13;;;29.45;;
31692;SDS011;37436;53.230;6.614;2022-09-12T08:34:21;62.55;;;29.63;;
31692;SDS011;37436;53.230;6.614;2022-09-12T08:36:48;53.95;;;26.27;;
31692;SDS011;37436;53.230;6.614;2022-09-12T08:39:15;53.15;;;26.25;;
31692;SDS011;37436;53.230;6.614;2022-09-12T08:41:48;48.55;;;25.52;;
31692;SDS011;37436;53.230;6.614;2022-09-12T08:49:53;48.50;;;24.25;;
31692;SDS011;37436;53.230;6.614;2022-09-12T08:55:24;43.58;;;24.25;;
31692;SDS011;37436;53.230;6.614;2022-09-12T08:57:50;49.35;;;23.83;;
31692;SDS011;37436;53.230;6.614;2022-09-12T09:00:17;41.88;;;23.25;;
31692;SDS011;37436;53.230;6.614;2022-09-12T09:02:48;46.95;;;24.40;;
31692;SDS011;37436;53.230;6.614;2022-09-12T09:10:35;43.65;;;23.20;;
31692;SDS011;37436;53.230;6.614;2022-09-12T09:15:32;43.13;;;22.58;;
31692;SDS011;37436;53.230;6.614;2022-09-12T09:18:09;41.35;;;23.70;;
31692;SDS011;37436;53.230;6.614;2022-09-12T09:23:13;43.45;;;22.70;;
31692;SDS011;37436;53.230;6.614;2022-09-12T09:28:41;47.50;;;23.40;;
31692;SDS011;37436;53.230;6.614;2022-09-12T09:31:00;47.97;;;24.27;;
31692;SDS011;37436;53.230;6.614;2022-09-12T09:33:27;44.55;;;21.95;;
31692;SDS011;37436;53.230;6.614;2022-09-12T09:35:59;42.60;;;22.23;;
31692;SDS011;37436;53.230;6.614;2022-09-12T09:38:37;44.30;;;22.40;;
31692;SDS011;37436;53.230;6.614;2022-09-12T09:41:11;49.63;;;23.52;;
31692;SDS011;37436;53.230;6.614;2022-09-12T09:43:39;40.80;;;22.00;;
31692;SDS011;37436;53.230;6.614;2022-09-12T09:46:05;43.33;;;21.77;;
31692;SDS011;37436;53.230;6.614;2022-09-12T09:48:33;40.83;;;20.45;;
31692;SDS011;37436;53.230;6.614;2022-09-12T09:51:01;37.45;;;21.05;;
31692;SDS011;37436;53.230;6.614;2022-09-12T09:54:15;37.25;;;21.45;;
31692;SDS011;37436;53.230;6.614;2022-09-12T09:58:39;38.08;;;21.55;;
31692;SDS011;37436;53.230;6.614;2022-09-12T10:01:11;41.33;;;20.77;;
31692;SDS011;37436;53.230;6.614;2022-09-12T10:03:38;39.75;;;21.23;;
31692;SDS011;37436;53.230;6.614;2022-09-12T10:06:06;40.15;;;20.38;;
31692;SDS011;37436;53.230;6.614;2022-09-12T10:08:35;39.13;;;21.02;;
31692;SDS011;37436;53.230;6.614;2022-09-12T10:11:04;36.33;;;20.70;;
31692;SDS011;37436;53.230;6.614;2022-09-12T10:13:35;41.78;;;21.90;;
31692;SDS011;37436;53.230;6.614;2022-09-12T10:16:03;36.22;;;21.63;;
31692;SDS011;37436;53.230;6.614;2022-09-12T10:18:37;41.22;;;22.70;;
31692;SDS011;37436;53.230;6.614;2022-09-12T10:23:39;34.92;;;20.40;;
31692;SDS011;37436;53.230;6.614;2022-09-12T10:26:09;43.03;;;22.90;;
31692;SDS011;37436;53.230;6.614;2022-09-12T10:28:42;40.78;;;21.60;;
31692;SDS011;37436;53.230;6.614;2022-09-12T10:31:12;43.72;;;21.80;;
31692;SDS011;37436;53.230;6.614;2022-09-12T10:33:41;43.38;;;23.02;;
31692;SDS011;37436;53.230;6.614;2022-09-12T10:36:08;40.33;;;19.50;;
31692;SDS011;37436;53.230;6.614;2022-09-12T10:38:34;39.42;;;21.70;;
31692;SDS011;37436;53.230;6.614;2022-09-12T10:41:04;39.60;;;19.02;;
31692;SDS011;37436;53.230;6.614;2022-09-12T10:43:35;55.25;;;21.08;;
31692;SDS011;37436;53.230;6.614;2022-09-12T10:48:40;27.75;;;14.55;;
31692;SDS011;37436;53.230;6.614;2022-09-12T10:51:11;27.92;;;14.77;;
31692;SDS011;37436;53.230;6.614;2022-09-12T10:53:40;28.77;;;13.38;;
31692;SDS011;37436;53.230;6.614;2022-09-12T10:56:27;32.90;;;15.18;;
31692;SDS011;37436;53.230;6.614;2022-09-12T11:14:27;17.17;;;10.27;;
31692;SDS011;37436;53.230;6.614;2022-09-12T11:27:22;23.30;;;12.73;;
31692;SDS011;37436;53.230;6.614;2022-09-12T11:30:01;31.52;;;15.95;;
31692;SDS011;37436;53.230;6.614;2022-09-12T11:40:28;30.05;;;15.90;;
31692;SDS011;37436;53.230;6.614;2022-09-12T11:43:02;27.80;;;15.65;;
31692;SDS011;37436;53.230;6.614;2022-09-12T11:45:35;32.05;;;14.23;;
31692;SDS011;37436;53.230;6.614;2022-09-12T11:48:05;21.75;;;12.05;;
31692;SDS011;37436;53.230;6.614;2022-09-12T11:50:32;22.65;;;12.45;;
31692;SDS011;37436;53.230;6.614;2022-09-12T11:53:00;23.23;;;12.68;;
31692;SDS011;37436;53.230;6.614;2022-09-12T11:55:28;18.92;;;11.75;;
31692;SDS011;37436;53.230;6.614;2022-09-12T11:57:56;23.20;;;13.52;;
31692;SDS011;37436;53.230;6.614;2022-09-12T12:08:22;14.77;;;8.95;;
31692;SDS011;37436;53.230;6.614;2022-09-12T12:10:53;16.55;;;10.07;;
31692;SDS011;37436;53.230;6.614;2022-09-12T12:13:33;15.43;;;10.02;;
31692;SDS011;37436;53.230;6.614;2022-09-12T12:16:01;17.67;;;8.93;;
31692;SDS011;37436;53.230;6.614;2022-09-12T12:18:30;25.42;;;12.05;;
31692;SDS011;37436;53.230;6.614;2022-09-12T12:21:14;17.67;;;9.98;;
31692;SDS011;37436;53.230;6.614;2022-09-12T12:24:00;14.77;;;9.07;;
31692;SDS011;37436;53.230;6.614;2022-09-12T12:29:09;15.35;;;7.57;;
31692;SDS011;37436;53.230;6.614;2022-09-12T12:34:21;14.88;;;8.57;;
31692;SDS011;37436;53.230;6.614;2022-09-12T12:36:51;20.15;;;8.27;;
31692;SDS011;37436;53.230;6.614;2022-09-12T12:41:59;13.88;;;8.43;;
31692;SDS011;37436;53.230;6.614;2022-09-12T12:47:27;10.80;;;6.97;;
31692;SDS011;37436;53.230;6.614;2022-09-12T12:49:58;10.50;;;5.95;;
31692;SDS011;37436;53.230;6.614;2022-09-12T12:52:26;9.00;;;5.20;;
31692;SDS011;37436;53.230;6.614;2022-09-12T12:54:55;16.58;;;7.10;;
31692;SDS011;37436;53.230;6.614;2022-09-12T12:59:52;20.38;;;6.68;;
31692;SDS011;37436;53.230;6.614;2022-09-12T13:02:19;15.00;;;7.20;;
31692;SDS011;37436;53.230;6.614;2022-09-12T13:04:46;12.13;;;6.90;;
31692;SDS011;37436;53.230;6.614;2022-09-12T13:07:20;14.63;;;6.43;;
31692;SDS011;37436;53.230;6.614;2022-09-12T13:09:49;7.82;;;5.75;;
31692;SDS011;37436;53.230;6.614;2022-09-12T13:12:23;6.45;;;4.53;;
31692;SDS011;37436;53.230;6.614;2022-09-12T13:17:36;6.88;;;3.72;;
31692;SDS011;37436;53.230;6.614;2022-09-12T13:20:12;8.98;;;4.93;;
31692;SDS011;37436;53.230;6.614;2022-09-12T13:22:43;8.32;;;4.47;;
31692;SDS011;37436;53.230;6.614;2022-09-12T13:27:58;6.65;;;4.72;;
31692;SDS011;37436;53.230;6.614;2022-09-12T13:30:25;6.63;;;4.80;;
31692;SDS011;37436;53.230;6.614;2022-09-12T13:32:52;9.05;;;6.20;;
31692;SDS011;37436;53.230;6.614;2022-09-12T13:35:24;9.98;;;6.22;;
31692;SDS011;37436;53.230;6.614;2022-09-12T13:38:01;9.60;;;5.32;;
31692;SDS011;37436;53.230;6.614;2022-09-12T13:40:32;11.85;;;6.22;;
31692;SDS011;37436;53.230;6.614;2022-09-12T13:43:15;9.18;;;6.20;;
31692;SDS011;37436;53.230;6.614;2022-09-12T13:45:45;9.05;;;5.22;;
31692;SDS011;37436;53.230;6.614;2022-09-12T13:48:21;10.88;;;5.97;;
31692;SDS011;37436;53.230;6.614;2022-09-12T13:50:54;7.65;;;5.10;;
31692;SDS011;37436;53.230;6.614;2022-09-12T13:53:23;8.68;;;4.97;;
31692;SDS011;37436;53.230;6.614;2022-09-12T13:55:51;12.85;;;6.55;;
31692;SDS011;37436;53.230;6.614;2022-09-12T14:00:44;11.70;;;7.13;;
31692;SDS011;37436;53.230;6.614;2022-09-12T14:03:19;12.18;;;6.32;;
31692;SDS011;37436;53.230;6.614;2022-09-12T14:06:07;8.52;;;4.93;;
31692;SDS011;37436;53.230;6.614;2022-09-12T14:08:34;7.22;;;5.18;;
31692;SDS011;37436;53.230;6.614;2022-09-12T14:11:07;13.15;;;5.80;;
31692;SDS011;37436;53.230;6.614;2022-09-12T14:13:40;8.35;;;5.82;;
31692;SDS011;37436;53.230;6.614;2022-09-12T14:16:08;10.93;;;5.93;;
31692;SDS011;37436;53.230;6.614;2022-09-12T14:18:36;10.75;;;5.53;;
31692;SDS011;37436;53.230;6.614;2022-09-12T14:21:06;8.85;;;5.15;;
31692;SDS011;37436;53.230;6.614;2022-09-12T14:23:39;7.90;;;4.60;;
31692;SDS011;37436;53.230;6.614;2022-09-12T14:26:08;10.10;;;4.38;;
31692;SDS011;37436;53.230;6.614;2022-09-12T14:28:37;8.18;;;5.20;;
31692;SDS011;37436;53.230;6.614;2022-09-12T14:33:31;7.18;;;5.05;;
31692;SDS011;37436;53.230;6.614;2022-09-12T14:36:08;11.63;;;5.80;;
31692;SDS011;37436;53.230;6.614;2022-09-12T14:38:44;9.57;;;5.38;;
31692;SDS011;37436;53.230;6.614;2022-09-12T14:41:12;11.13;;;7.47;;
31692;SDS011;37436;53.230;6.614;2022-09-12T14:43:41;8.35;;;5.30;;
31692;SDS011;37436;53.230;6.614;2022-09-12T14:46:16;8.60;;;5.40;;
31692;SDS011;37436;53.230;6.614;2022-09-12T14:48:48;7.95;;;4.88;;
31692;SDS011;37436;53.230;6.614;2022-09-12T14:51:20;10.77;;;5.18;;
31692;SDS011;37436;53.230;6.614;2022-09-12T14:53:47;9.35;;;5.47;;
31692;SDS011;37436;53.230;6.614;2022-09-12T14:56:13;8.75;;;5.28;;
31692;SDS011;37436;53.230;6.614;2022-09-12T14:58:40;8.27;;;4.78;;
31692;SDS011;37436;53.230;6.614;2022-09-12T15:03:36;13.25;;;5.78;;
31692;SDS011;37436;53.230;6.614;2022-09-12T15:06:04;12.07;;;5.93;;
31692;SDS011;37436;53.230;6.614;2022-09-12T15:08:33;7.32;;;5.32;;
31692;SDS011;37436;53.230;6.614;2022-09-12T15:11:05;12.88;;;6.28;;
31692;SDS011;37436;53.230;6.614;2022-09-12T15:13:37;12.18;;;6.43;;
31692;SDS011;37436;53.230;6.614;2022-09-12T15:16:03;15.25;;;7.50;;
31692;SDS011;37436;53.230;6.614;2022-09-12T15:18:29;11.32;;;7.25;;
31692;SDS011;37436;53.230;6.614;2022-09-12T15:21:06;13.68;;;7.70;;
31692;SDS011;37436;53.230;6.614;2022-09-12T15:25:59;10.95;;;7.40;;
31692;SDS011;37436;53.230;6.614;2022-09-12T15:28:26;12.07;;;7.57;;
31692;SDS011;37436;53.230;6.614;2022-09-12T15:30:53;12.00;;;7.35;;
31692;SDS011;37436;53.230;6.614;2022-09-12T15:33:20;16.75;;;10.40;;
31692;SDS011;37436;53.230;6.614;2022-09-12T15:35:48;16.80;;;10.05;;
31692;SDS011;37436;53.230;6.614;2022-09-12T15:38:14;14.18;;;9.38;;
31692;SDS011;37436;53.230;6.614;2022-09-12T15:40:40;15.25;;;8.57;;
31692;SDS011;37436;53.230;6.614;2022-09-12T15:43:06;16.83;;;8.60;;
31692;SDS011;37436;53.230;6.614;2022-09-12T15:45:33;14.00;;;8.23;;
31692;SDS011;37436;53.230;6.614;2022-09-12T15:47:59;13.05;;;8.80;;
31692;SDS011;37436;53.230;6.614;2022-09-12T15:50:27;12.18;;;8.35;;
31692;SDS011;37436;53.230;6.614;2022-09-12T15:52:55;15.10;;;9.48;;
31692;SDS011;37436;53.230;6.614;2022-09-12T15:55:25;16.10;;;9.45;;
31692;SDS011;37436;53.230;6.614;2022-09-12T15:57:52;13.95;;;8.80;;
31692;SDS011;37436;53.230;6.614;2022-09-12T16:00:21;13.38;;;8.00;;
31692;SDS011;37436;53.230;6.614;2022-09-12T16:02:51;11.65;;;8.30;;
31692;SDS011;37436;53.230;6.614;2022-09-12T16:05:21;14.05;;;8.05;;
31692;SDS011;37436;53.230;6.614;2022-09-12T16:07:49;15.52;;;7.93;;
31692;SDS011;37436;53.230;6.614;2022-09-12T16:10:18;16.25;;;7.88;;
31692;SDS011;37436;53.230;6.614;2022-09-12T16:12:45;16.38;;;8.70;;
31692;SDS011;37436;53.230;6.614;2022-09-12T16:15:12;10.77;;;7.10;;
31692;SDS011;37436;53.230;6.614;2022-09-12T16:17:38;12.07;;;6.63;;
31692;SDS011;37436;53.230;6.614;2022-09-12T16:20:04;10.07;;;7.18;;
31692;SDS011;37436;53.230;6.614;2022-09-12T16:22:30;10.32;;;6.82;;
31692;SDS011;37436;53.230;6.614;2022-09-12T16:24:56;12.32;;;7.60;;
31692;SDS011;37436;53.230;6.614;2022-09-12T16:27:22;10.48;;;6.53;;
31692;SDS011;37436;53.230;6.614;2022-09-12T16:29:48;9.18;;;5.97;;
31692;SDS011;37436;53.230;6.614;2022-09-12T16:32:16;9.27;;;6.30;;
31692;SDS011;37436;53.230;6.614;2022-09-12T16:34:42;10.05;;;7.00;;
31692;SDS011;37436;53.230;6.614;2022-09-12T16:37:08;11.20;;;5.95;;
31692;SDS011;37436;53.230;6.614;2022-09-12T16:39:34;11.88;;;5.70;;
31692;SDS011;37436;53.230;6.614;2022-09-12T16:42:00;9.18;;;4.97;;
31692;SDS011;37436;53.230;6.614;2022-09-12T16:44:26;8.35;;;5.72;;
31692;SDS011;37436;53.230;6.614;2022-09-12T16:46:52;8.48;;;4.88;;
31692;SDS011;37436;53.230;6.614;2022-09-12T16:49:18;7.00;;;4.10;;
31692;SDS011;37436;53.230;6.614;2022-09-12T16:51:45;7.10;;;4.55;;
31692;SDS011;37436;53.230;6.614;2022-09-12T16:54:12;7.78;;;4.53;;
31692;SDS011;37436;53.230;6.614;2022-09-12T16:56:38;7.80;;;4.57;;
31692;SDS011;37436;53.230;6.614;2022-09-12T16:59:05;6.85;;;4.25;;
31692;SDS011;37436;53.230;6.614;2022-09-12T17:01:31;7.38;;;4.20;;
31692;SDS011;37436;53.230;6.614;2022-09-12T17:03:58;8.00;;;4.38;;